Bristow, Iowa
Current Conditions -  °F | °C
As of 10:15 AM on Sunday 25 Jan 2015 (Local Time) from KCCY Reporting Station
Overcast Overcast  
Wind Chill: 19°   Ceiling: 1200
Heat Index: 30°   Visibility: 10mi
Dew Point: 28°   Wind: 16mph
Humidity: 93%   Direction: 40°NE
Pressure: 29.9"   Gusts: NA
Location:  42.77°N, 92.91°W
Report Text: KCCY 251615Z AUTO 04014KT 10SM OVC012 M01/M02 A2990 RMK AO2
Loading
Personal Weather Stations






























Interactive Weather Map New forecast layout! Learn more

10-Day Weather Forecast

Advertisements
Track Severe Weather on mobile